createdAt,value
2018-01-13T00:01:00.120Z,1.1
2018-01-13T00:02:02.525Z,1.1
2018-01-13T00:03:04.931Z,1.1
2018-01-13T00:04:07.338Z,1.1
2018-01-13T00:05:10.071Z,1.1
2018-01-13T00:06:12.490Z,1.1
2018-01-13T00:07:14.888Z,1.1
2018-01-13T00:08:17.300Z,1.1
2018-01-13T00:09:19.710Z,1.1
2018-01-13T00:10:22.112Z,1.1
2018-01-13T00:11:24.515Z,1.1
2018-01-13T00:12:26.922Z,1.1
2018-01-13T00:13:29.328Z,1.1
2018-01-13T00:14:32.318Z,1.1
2018-01-13T00:15:34.715Z,1.1
2018-01-13T00:16:37.130Z,1.1
2018-01-13T00:17:39.820Z,1.1
2018-01-13T00:18:42.249Z,1.1
2018-01-13T00:19:44.940Z,1.1
2018-01-13T00:20:47.349Z,1.1
2018-01-13T00:21:49.764Z,1.1
2018-01-13T00:22:52.177Z,1.1
2018-01-13T00:23:54.582Z,1.1
2018-01-13T00:24:56.996Z,1.1
2018-01-13T00:25:59.379Z,1.1
2018-01-13T00:27:02.077Z,1.1
2018-01-13T00:28:04.493Z,1.1
2018-01-13T00:29:06.900Z,1.1
2018-01-13T00:30:09.308Z,1.1
2018-01-13T00:31:11.726Z,1.1
2018-01-13T00:32:14.144Z,1
2018-01-13T00:33:16.536Z,1.1
2018-01-13T00:34:18.953Z,1.1
2018-01-13T00:35:21.360Z,1.1
2018-01-13T00:36:23.758Z,1.1
2018-01-13T00:37:26.448Z,1.1
2018-01-13T00:38:28.843Z,1.1
2018-01-13T00:39:31.241Z,1
2018-01-13T00:40:33.666Z,1
2018-01-13T00:41:36.634Z,1
2018-01-13T00:42:39.038Z,1
2018-01-13T00:43:41.448Z,1.1
2018-01-13T00:44:44.138Z,1.1
2018-01-13T00:45:46.550Z,1.1
2018-01-13T00:46:48.965Z,1.1
2018-01-13T00:47:51.371Z,1
2018-01-13T00:48:53.778Z,1
2018-01-13T00:49:56.196Z,1
2018-01-13T00:50:58.878Z,1.1
2018-01-13T00:52:01.285Z,1.1
2018-01-13T00:53:03.695Z,1
2018-01-13T00:54:06.097Z,1
2018-01-13T00:55:08.497Z,1.1
2018-01-13T00:56:10.914Z,1.1
2018-01-13T00:57:13.317Z,1.1
2018-01-13T00:58:15.734Z,1
2018-01-13T00:59:18.720Z,1
2018-01-13T01:00:21.128Z,1
2018-01-13T01:01:23.536Z,1
2018-01-13T01:02:25.942Z,1
2018-01-13T01:03:28.349Z,1
2018-01-13T01:04:30.757Z,1
2018-01-13T01:05:33.168Z,1
2018-01-13T01:06:35.568Z,1
2018-01-13T01:07:37.971Z,1
2018-01-13T01:08:40.386Z,1
2018-01-13T01:09:42.798Z,1
2018-01-13T01:10:45.202Z,1
2018-01-13T01:11:47.612Z,1
2018-01-13T01:12:50.019Z,1
2018-01-13T01:13:52.431Z,1
2018-01-13T01:14:54.845Z,1
2018-01-13T01:15:57.525Z,1
2018-01-13T01:16:59.931Z,1
2018-01-13T01:18:02.375Z,1
2018-01-13T01:19:04.780Z,1
2018-01-13T01:20:07.181Z,1
2018-01-13T01:21:09.596Z,1
2018-01-13T01:22:12.276Z,1
2018-01-13T01:23:14.690Z,1
2018-01-13T01:24:17.102Z,1
2018-01-13T01:25:19.506Z,1
2018-01-13T01:26:21.928Z,1.1
2018-01-13T01:27:24.334Z,1
2018-01-13T01:28:26.740Z,1
2018-01-13T01:29:29.483Z,1
2018-01-13T01:30:31.910Z,1.1
2018-01-13T01:31:34.306Z,1
2018-01-13T01:32:36.709Z,1
2018-01-13T01:33:39.119Z,1
2018-01-13T01:34:41.523Z,1.1
2018-01-13T01:35:43.930Z,1.1
2018-01-13T01:36:46.338Z,1
2018-01-13T01:37:49.030Z,1
2018-01-13T01:38:51.451Z,1
2018-01-13T01:39:53.855Z,1.1
2018-01-13T01:40:56.262Z,1
2018-01-13T01:41:58.666Z,1
2018-01-13T01:43:01.366Z,1.1
2018-01-13T01:44:03.773Z,1.1
2018-01-13T01:45:06.181Z,1
2018-01-13T01:46:08.587Z,1
2018-01-13T01:47:10.994Z,1
2018-01-13T01:48:13.674Z,1
2018-01-13T01:49:16.097Z,1
2018-01-13T01:50:18.496Z,1
2018-01-13T01:51:20.907Z,1
2018-01-13T01:52:23.316Z,1.1
2018-01-13T01:53:25.721Z,1
2018-01-13T01:54:28.127Z,1
2018-01-13T01:55:30.540Z,1
2018-01-13T01:56:32.935Z,1
2018-01-13T01:57:35.348Z,1
2018-01-13T01:58:37.754Z,1
2018-01-13T01:59:40.157Z,1
2018-01-13T02:00:42.570Z,1
2018-01-13T02:01:44.972Z,1
2018-01-13T02:02:47.372Z,1
2018-01-13T02:03:49.788Z,1.1
2018-01-13T02:04:52.191Z,1.1
2018-01-13T02:05:54.886Z,1.1
2018-01-13T02:06:57.347Z,1.1
2018-01-13T02:07:59.705Z,1
2018-01-13T02:09:02.105Z,1
2018-01-13T02:10:04.522Z,1
2018-01-13T02:11:06.917Z,1
2018-01-13T02:12:09.914Z,1
2018-01-13T02:13:12.307Z,1
2018-01-13T02:14:14.715Z,1.1
2018-01-13T02:15:17.138Z,1
2018-01-13T02:16:19.826Z,1
2018-01-13T02:17:22.236Z,1.1
2018-01-13T02:18:24.923Z,1
2018-01-13T02:19:27.336Z,1
2018-01-13T02:20:29.741Z,1
2018-01-13T02:21:32.153Z,1
2018-01-13T02:22:34.550Z,1
2018-01-13T02:23:37.267Z,1
2018-01-13T02:24:39.683Z,1
2018-01-13T02:25:42.081Z,1.1
2018-01-13T02:26:44.761Z,1.1
2018-01-13T02:27:47.166Z,1.1
2018-01-13T02:28:49.557Z,1.1
2018-01-13T02:29:51.972Z,1.1
2018-01-13T02:30:54.373Z,1.1
2018-01-13T02:31:56.789Z,1.1
2018-01-13T02:32:59.486Z,1.1
2018-01-13T02:34:01.892Z,1.1
2018-01-13T02:35:04.302Z,1.1
2018-01-13T02:36:06.713Z,1.1
2018-01-13T02:37:09.116Z,1.1
2018-01-13T02:38:11.522Z,1.1
2018-01-13T02:39:13.918Z,1.1
2018-01-13T02:40:16.327Z,1.1
2018-01-13T02:41:18.734Z,1.1
2018-01-13T02:42:21.139Z,1.1
2018-01-13T02:43:23.547Z,1.1
2018-01-13T02:44:25.959Z,1.1
2018-01-13T02:45:28.660Z,1.1
2018-01-13T02:46:31.079Z,1.1
2018-01-13T02:47:33.493Z,1.1
2018-01-13T02:48:36.158Z,1.1
2018-01-13T02:49:38.579Z,1
2018-01-13T02:50:40.991Z,1
2018-01-13T02:51:43.402Z,1
2018-01-13T02:52:45.808Z,1
2018-01-13T02:53:48.213Z,1
2018-01-13T02:54:50.614Z,0.9
2018-01-13T02:55:53.032Z,0.9
2018-01-13T02:56:55.436Z,0.9
2018-01-13T02:57:57.839Z,0.9
2018-01-13T02:59:00.246Z,0.9
2018-01-13T03:00:02.654Z,0.9
2018-01-13T03:01:05.067Z,0.9
2018-01-13T03:02:07.473Z,0.9
2018-01-13T03:03:09.885Z,0.9
2018-01-13T03:04:12.565Z,0.9
2018-01-13T03:05:15.255Z,0.9
2018-01-13T03:06:17.996Z,0.9
2018-01-13T03:07:20.406Z,0.9
2018-01-13T03:08:22.806Z,0.9
2018-01-13T03:09:25.216Z,0.9
2018-01-13T03:10:27.607Z,0.9
2018-01-13T03:11:30.029Z,0.9
2018-01-13T03:12:32.419Z,0.9
2018-01-13T03:13:34.829Z,0.9
2018-01-13T03:14:37.240Z,0.9
2018-01-13T03:15:39.949Z,0.9
2018-01-13T03:16:42.357Z,0.9
2018-01-13T03:17:44.757Z,0.9
2018-01-13T03:18:47.472Z,0.9
2018-01-13T03:19:49.882Z,0.9
2018-01-13T03:20:52.284Z,0.9
2018-01-13T03:21:54.677Z,0.9
2018-01-13T03:22:57.082Z,0.9
2018-01-13T03:23:59.488Z,0.8
2018-01-13T03:25:01.894Z,0.8
2018-01-13T03:26:04.292Z,0.9
2018-01-13T03:27:06.709Z,0.9
2018-01-13T03:28:09.112Z,0.9
2018-01-13T03:29:11.512Z,0.9
2018-01-13T03:30:13.926Z,0.9
2018-01-13T03:31:16.332Z,0.8
2018-01-13T03:32:18.731Z,0.8
2018-01-13T03:33:21.143Z,0.8
2018-01-13T03:34:23.535Z,0.9
2018-01-13T03:35:25.937Z,0.9
2018-01-13T03:36:28.359Z,0.9
2018-01-13T03:37:30.762Z,0.8
2018-01-13T03:38:33.449Z,0.9
2018-01-13T03:39:35.864Z,0.8
2018-01-13T03:40:38.267Z,0.8
2018-01-13T03:41:40.667Z,0.8
2018-01-13T03:42:43.080Z,0.8
2018-01-13T03:43:45.769Z,0.8
2018-01-13T03:44:48.450Z,0.8
2018-01-13T03:45:50.873Z,0.8
2018-01-13T03:46:53.270Z,0.8
2018-01-13T03:47:55.679Z,0.8
2018-01-13T03:48:58.081Z,0.8
2018-01-13T03:50:00.480Z,0.8
2018-01-13T03:51:03.181Z,0.8
2018-01-13T03:52:05.585Z,0.8
2018-01-13T03:53:07.986Z,0.8
2018-01-13T03:54:10.684Z,0.8
2018-01-13T03:55:13.090Z,0.8
2018-01-13T03:56:15.502Z,0.8
2018-01-13T03:57:17.907Z,0.8
2018-01-13T03:58:20.607Z,0.8
2018-01-13T03:59:23.011Z,0.8
2018-01-13T04:00:25.695Z,0.8
2018-01-13T04:01:28.387Z,0.8
2018-01-13T04:02:30.778Z,0.8
2018-01-13T04:03:33.192Z,0.8
2018-01-13T04:04:35.879Z,0.8
2018-01-13T04:05:38.287Z,0.8
2018-01-13T04:06:40.701Z,0.8
2018-01-13T04:07:43.108Z,0.8
2018-01-13T04:08:45.516Z,0.8
2018-01-13T04:09:47.930Z,0.8
2018-01-13T04:10:50.333Z,0.8
2018-01-13T04:11:52.739Z,0.8
2018-01-13T04:12:55.150Z,0.8
2018-01-13T04:13:57.541Z,0.8
2018-01-13T04:14:59.955Z,0.8
2018-01-13T04:16:02.963Z,0.8
2018-01-13T04:17:05.923Z,0.8
2018-01-13T04:18:08.614Z,0.8
2018-01-13T04:19:11.016Z,0.8
2018-01-13T04:20:13.420Z,0.8
2018-01-13T04:21:15.833Z,0.8
2018-01-13T04:22:18.244Z,0.8
2018-01-13T04:23:20.944Z,0.8
2018-01-13T04:24:23.361Z,0.8
2018-01-13T04:25:25.764Z,0.8
2018-01-13T04:26:28.164Z,0.8
2018-01-13T04:27:30.577Z,0.8
2018-01-13T04:28:32.986Z,0.8
2018-01-13T04:29:35.960Z,0.8
2018-01-13T04:30:38.361Z,0.8
2018-01-13T04:31:40.763Z,0.8
2018-01-13T04:32:43.176Z,0.8
2018-01-13T04:33:45.583Z,0.8
2018-01-13T04:34:47.988Z,0.8
2018-01-13T04:35:50.393Z,0.8
2018-01-13T04:36:52.794Z,0.8
2018-01-13T04:37:55.206Z,0.8
2018-01-13T04:38:57.893Z,0.8
2018-01-13T04:40:00.304Z,0.8
2018-01-13T04:41:02.707Z,0.8
2018-01-13T04:42:05.122Z,0.8
2018-01-13T04:43:07.523Z,0.8
2018-01-13T04:44:09.929Z,0.8
2018-01-13T04:45:12.347Z,0.8
2018-01-13T04:46:14.732Z,0.8
2018-01-13T04:47:17.712Z,0.8
2018-01-13T04:48:20.118Z,0.8
2018-01-13T04:49:22.522Z,0.8
2018-01-13T04:50:25.215Z,0.8
2018-01-13T04:51:27.618Z,0.8
2018-01-13T04:52:30.034Z,0.8
2018-01-13T04:53:32.742Z,0.8
2018-01-13T04:54:35.123Z,0.8
2018-01-13T04:55:37.526Z,0.8
2018-01-13T04:56:39.936Z,0.8
2018-01-13T04:57:42.349Z,0.8
2018-01-13T04:58:45.034Z,0.8
2018-01-13T04:59:47.444Z,0.8
2018-01-13T05:00:49.856Z,0.7
2018-01-13T05:01:52.529Z,0.8
2018-01-13T05:02:54.945Z,0.8
2018-01-13T05:03:57.349Z,0.7
2018-01-13T05:04:59.754Z,0.8
2018-01-13T05:06:02.442Z,0.7
2018-01-13T05:07:05.127Z,0.7
2018-01-13T05:08:07.522Z,0.7
2018-01-13T05:09:09.936Z,0.7
2018-01-13T05:10:12.340Z,0.7
2018-01-13T05:11:15.030Z,0.7
2018-01-13T05:12:17.437Z,0.7
2018-01-13T05:13:20.148Z,0.7
2018-01-13T05:14:22.555Z,0.7
2018-01-13T05:15:24.958Z,0.7
2018-01-13T05:16:27.915Z,0.7
2018-01-13T05:17:30.324Z,0.8
2018-01-13T05:18:32.730Z,0.7
2018-01-13T05:19:35.136Z,0.7
2018-01-13T05:20:37.538Z,0.7
2018-01-13T05:21:39.951Z,0.7
2018-01-13T05:22:42.355Z,0.7
2018-01-13T05:23:44.780Z,0.7
2018-01-13T05:24:47.183Z,0.7
2018-01-13T05:25:49.576Z,0.7
2018-01-13T05:26:51.989Z,0.7
2018-01-13T05:27:54.401Z,0.7
2018-01-13T05:28:56.810Z,0.7
2018-01-13T05:29:59.220Z,0.6
2018-01-13T05:31:01.630Z,0.7
2018-01-13T05:32:04.035Z,0.7
2018-01-13T05:33:06.450Z,0.7
2018-01-13T05:34:08.850Z,0.7
2018-01-13T05:35:11.246Z,0.7
2018-01-13T05:36:13.927Z,0.7
2018-01-13T05:37:16.615Z,0.6
2018-01-13T05:38:19.020Z,0.7
2018-01-13T05:39:21.717Z,0.6
2018-01-13T05:40:24.117Z,0.6
2018-01-13T05:41:26.525Z,0.6
2018-01-13T05:42:28.936Z,0.6
2018-01-13T05:43:31.623Z,0.6
2018-01-13T05:44:34.309Z,0.6
2018-01-13T05:45:36.997Z,0.7
2018-01-13T05:46:39.400Z,0.6
2018-01-13T05:47:41.823Z,0.6
2018-01-13T05:48:44.229Z,0.6
2018-01-13T05:49:46.622Z,0.7
2018-01-13T05:50:49.033Z,0.7
2018-01-13T05:51:51.437Z,0.6
2018-01-13T05:52:53.836Z,0.6
2018-01-13T05:53:56.245Z,0.6
2018-01-13T05:54:58.649Z,0.6
2018-01-13T05:56:01.055Z,0.7
2018-01-13T05:57:03.457Z,0.6
2018-01-13T05:58:05.875Z,0.6
2018-01-13T05:59:08.267Z,0.6
2018-01-13T06:00:10.673Z,0.6
2018-01-13T06:01:13.084Z,0.6
2018-01-13T06:02:15.483Z,0.7
2018-01-13T06:03:17.888Z,0.6
2018-01-13T06:04:20.577Z,0.6
2018-01-13T06:05:22.983Z,0.6
2018-01-13T06:06:25.405Z,0.6
2018-01-13T06:07:27.811Z,0.6
2018-01-13T06:08:30.199Z,0.6
2018-01-13T06:09:32.618Z,0.6
2018-01-13T06:10:35.026Z,0.7
2018-01-13T06:11:37.427Z,0.7
2018-01-13T06:12:39.840Z,0.6
2018-01-13T06:13:42.230Z,0.6
2018-01-13T06:14:44.640Z,0.6
2018-01-13T06:15:47.053Z,0.6
2018-01-13T06:16:49.741Z,0.6
2018-01-13T06:17:52.153Z,0.6
2018-01-13T06:18:54.553Z,0.7
2018-01-13T06:19:56.957Z,0.6
2018-01-13T06:20:59.370Z,0.6
2018-01-13T06:22:01.769Z,0.6
2018-01-13T06:23:04.167Z,0.6
2018-01-13T06:24:06.862Z,0.7
2018-01-13T06:25:09.266Z,0.6
2018-01-13T06:26:11.672Z,0.7
2018-01-13T06:27:14.077Z,0.7
2018-01-13T06:28:16.483Z,0.7
2018-01-13T06:29:18.889Z,0.6
2018-01-13T06:30:21.290Z,0.7
2018-01-13T06:31:23.695Z,0.7
2018-01-13T06:32:26.383Z,0.7
2018-01-13T06:33:28.791Z,0.6
2018-01-13T06:34:31.205Z,0.6
2018-01-13T06:35:33.609Z,0.7
2018-01-13T06:36:36.016Z,0.7
2018-01-13T06:37:38.417Z,0.7
2018-01-13T06:38:40.822Z,0.7
2018-01-13T06:39:43.232Z,0.6
2018-01-13T06:40:45.637Z,0.6
2018-01-13T06:41:48.043Z,0.6
2018-01-13T06:42:50.448Z,0.6
2018-01-13T06:43:52.852Z,0.6
2018-01-13T06:44:55.260Z,0.6
2018-01-13T06:45:57.671Z,0.6
2018-01-13T06:47:00.075Z,0.7
2018-01-13T06:48:02.470Z,0.7
2018-01-13T06:49:04.880Z,0.6
2018-01-13T06:50:07.282Z,0.7
2018-01-13T06:51:09.969Z,0.6
2018-01-13T06:52:12.375Z,0.6
2018-01-13T06:53:14.782Z,0.6
2018-01-13T06:54:17.187Z,0.6
2018-01-13T06:55:19.597Z,0.6
2018-01-13T06:56:22.009Z,0.6
2018-01-13T06:57:24.413Z,0.6
2018-01-13T06:58:27.095Z,0.6
2018-01-13T06:59:29.504Z,0.6
2018-01-13T07:00:31.907Z,0.6
2018-01-13T07:01:34.309Z,0.6
2018-01-13T07:02:36.720Z,0.6
2018-01-13T07:03:39.128Z,0.6
2018-01-13T07:04:41.533Z,0.6
2018-01-13T07:05:43.954Z,0.6
2018-01-13T07:06:46.348Z,0.6
2018-01-13T07:07:48.762Z,0.6
2018-01-13T07:08:51.166Z,0.6
2018-01-13T07:09:53.846Z,0.5
2018-01-13T07:10:56.263Z,0.6
2018-01-13T07:11:58.667Z,0.6
2018-01-13T07:13:01.066Z,0.6
2018-01-13T07:14:03.479Z,0.6
2018-01-13T07:15:05.887Z,0.6
2018-01-13T07:16:08.286Z,0.6
2018-01-13T07:17:10.697Z,0.6
2018-01-13T07:18:13.097Z,0.6
2018-01-13T07:19:15.499Z,0.6
2018-01-13T07:20:17.907Z,0.6
2018-01-13T07:21:20.310Z,0.6
2018-01-13T07:22:22.722Z,0.6
2018-01-13T07:23:25.122Z,0.6
2018-01-13T07:24:27.542Z,0.6
2018-01-13T07:25:29.969Z,0.6
2018-01-13T07:26:32.343Z,0.6
2018-01-13T07:27:34.750Z,0.6
2018-01-13T07:28:37.161Z,0.6
2018-01-13T07:29:39.558Z,0.6
2018-01-13T07:30:41.972Z,0.5
2018-01-13T07:31:44.363Z,0.5
2018-01-13T07:32:46.777Z,0.5
2018-01-13T07:33:49.188Z,0.6
2018-01-13T07:34:51.601Z,0.5
2018-01-13T07:35:54.007Z,0.6
2018-01-13T07:36:56.417Z,0.5
2018-01-13T07:37:58.815Z,0.5
2018-01-13T07:39:01.232Z,0.5
2018-01-13T07:40:03.635Z,0.5
2018-01-13T07:41:06.044Z,0.6
2018-01-13T07:42:08.447Z,0.6
2018-01-13T07:43:10.856Z,0.6
2018-01-13T07:44:13.253Z,0.6
2018-01-13T07:45:15.669Z,0.6
2018-01-13T07:46:18.072Z,0.6
2018-01-13T07:47:20.480Z,0.5
2018-01-13T07:48:22.889Z,0.6
2018-01-13T07:49:25.301Z,0.6
2018-01-13T07:50:27.706Z,0.6
2018-01-13T07:51:30.115Z,0.6
2018-01-13T07:52:32.811Z,0.5
2018-01-13T07:53:35.207Z,0.6
2018-01-13T07:54:37.612Z,0.5
2018-01-13T07:55:40.023Z,0.6
2018-01-13T07:56:42.424Z,0.6
2018-01-13T07:57:45.180Z,0.6
2018-01-13T07:58:47.537Z,0.6
2018-01-13T07:59:49.937Z,0.6
2018-01-13T08:00:52.353Z,0.6
2018-01-13T08:01:54.758Z,0.6
2018-01-13T08:02:57.149Z,0.6
2018-01-13T08:03:59.561Z,0.7
2018-01-13T08:05:01.971Z,0.6
2018-01-13T08:06:04.371Z,0.6
2018-01-13T08:07:06.772Z,0.7
2018-01-13T08:08:09.185Z,0.7
2018-01-13T08:09:11.585Z,0.7
2018-01-13T08:10:13.991Z,0.7
2018-01-13T08:11:16.400Z,0.7
2018-01-13T08:12:19.071Z,0.7
2018-01-13T08:13:21.758Z,0.7
2018-01-13T08:14:24.445Z,0.7
2018-01-13T08:15:26.857Z,0.7
2018-01-13T08:16:29.267Z,0.7
2018-01-13T08:17:31.681Z,0.7
2018-01-13T08:18:34.086Z,0.7
2018-01-13T08:19:36.499Z,0.7
2018-01-13T08:20:38.906Z,0.7
2018-01-13T08:21:41.324Z,0.7
2018-01-13T08:22:43.720Z,0.7
2018-01-13T08:23:46.123Z,0.7
2018-01-13T08:24:48.520Z,0.6
2018-01-13T08:25:50.925Z,0.7
2018-01-13T08:26:53.332Z,0.7
2018-01-13T08:27:56.033Z,0.7
2018-01-13T08:28:58.721Z,0.7
2018-01-13T08:30:01.133Z,0.6
2018-01-13T08:31:03.540Z,0.7
2018-01-13T08:32:05.941Z,0.6
2018-01-13T08:33:08.353Z,0.6
2018-01-13T08:34:10.756Z,0.6
2018-01-13T08:35:13.455Z,0.6
2018-01-13T08:36:15.871Z,0.6
2018-01-13T08:37:18.264Z,0.6
2018-01-13T08:38:20.687Z,0.6
2018-01-13T08:39:23.088Z,0.6
2018-01-13T08:40:25.485Z,0.6
2018-01-13T08:41:27.887Z,0.6
2018-01-13T08:42:30.294Z,0.6
2018-01-13T08:43:32.700Z,0.6
2018-01-13T08:44:35.115Z,0.6
2018-01-13T08:45:37.513Z,0.6
2018-01-13T08:46:39.919Z,0.6
2018-01-13T08:47:42.614Z,0.6
2018-01-13T08:48:45.019Z,0.6
2018-01-13T08:49:47.424Z,0.6
2018-01-13T08:50:49.832Z,0.6
2018-01-13T08:51:52.239Z,0.7
2018-01-13T08:52:54.919Z,0.6
2018-01-13T08:53:57.330Z,0.6
2018-01-13T08:54:59.736Z,0.6
2018-01-13T08:56:02.151Z,0.7
2018-01-13T08:57:04.553Z,0.7
2018-01-13T08:58:06.966Z,0.7
2018-01-13T08:59:09.652Z,0.6
2018-01-13T09:00:12.072Z,0.6
2018-01-13T09:01:14.464Z,0.6
2018-01-13T09:02:16.868Z,0.6
2018-01-13T09:03:19.276Z,0.6
2018-01-13T09:04:21.963Z,0.6
2018-01-13T09:05:24.374Z,0.6
2018-01-13T09:06:26.771Z,0.6
2018-01-13T09:07:29.171Z,0.6
2018-01-13T09:08:31.570Z,0.6
2018-01-13T09:09:33.980Z,0.6
2018-01-13T09:10:36.394Z,0.7
2018-01-13T09:11:38.781Z,0.7
2018-01-13T09:12:41.197Z,0.7
2018-01-13T09:13:43.607Z,0.6
2018-01-13T09:14:46.021Z,0.6
2018-01-13T09:15:48.428Z,0.6
2018-01-13T09:16:50.834Z,0.6
2018-01-13T09:17:53.232Z,0.6
2018-01-13T09:18:55.649Z,0.7
2018-01-13T09:19:58.055Z,0.6
2018-01-13T09:21:00.453Z,0.6
2018-01-13T09:22:02.863Z,0.7
2018-01-13T09:23:05.551Z,0.7
2018-01-13T09:24:07.956Z,0.7
2018-01-13T09:25:10.367Z,0.7
2018-01-13T09:26:13.074Z,0.7
2018-01-13T09:27:15.479Z,0.6
2018-01-13T09:28:18.161Z,0.6
2018-01-13T09:29:20.564Z,0.7
2018-01-13T09:30:23.255Z,0.7
2018-01-13T09:31:25.654Z,0.6
2018-01-13T09:32:28.059Z,0.7
2018-01-13T09:33:30.450Z,0.6
2018-01-13T09:34:32.866Z,0.7
2018-01-13T09:35:35.287Z,0.6
2018-01-13T09:36:37.693Z,0.7
2018-01-13T09:37:40.097Z,0.7
2018-01-13T09:38:42.508Z,0.7
2018-01-13T09:39:44.916Z,0.7
2018-01-13T09:40:47.318Z,0.7
2018-01-13T09:41:49.730Z,0.6
2018-01-13T09:42:52.449Z,0.7
2018-01-13T09:43:54.863Z,0.7
2018-01-13T09:44:57.274Z,0.8
2018-01-13T09:45:59.680Z,0.7
2018-01-13T09:47:02.084Z,0.8
2018-01-13T09:48:04.781Z,0.7
2018-01-13T09:49:07.187Z,0.8
2018-01-13T09:50:09.600Z,0.9
2018-01-13T09:51:12.307Z,0.8
2018-01-13T09:52:14.731Z,0.8
2018-01-13T09:53:17.134Z,0.8
2018-01-13T09:54:19.543Z,0.7
2018-01-13T09:55:21.942Z,0.8
2018-01-13T09:56:24.358Z,0.7
2018-01-13T09:57:26.751Z,0.8
2018-01-13T09:58:29.172Z,0.8
2018-01-13T09:59:31.848Z,0.8
2018-01-13T10:00:34.250Z,0.8
2018-01-13T10:01:36.664Z,0.8
2018-01-13T10:02:39.355Z,0.8
2018-01-13T10:03:41.784Z,0.8
2018-01-13T10:04:44.177Z,0.8
2018-01-13T10:05:46.870Z,0.8
2018-01-13T10:06:49.568Z,0.8
2018-01-13T10:07:51.980Z,0.8
2018-01-13T10:08:54.379Z,0.8
2018-01-13T10:09:56.789Z,0.8
2018-01-13T10:10:59.209Z,0.8
2018-01-13T10:12:01.608Z,0.8
2018-01-13T10:13:04.013Z,0.8
2018-01-13T10:14:06.422Z,0.9
2018-01-13T10:15:08.822Z,0.9
2018-01-13T10:16:11.239Z,0.9
2018-01-13T10:17:13.762Z,0.9
2018-01-13T10:18:16.046Z,0.8
2018-01-13T10:19:18.452Z,0.8
2018-01-13T10:20:20.857Z,0.9
2018-01-13T10:21:23.264Z,0.9
2018-01-13T10:22:25.669Z,0.9
2018-01-13T10:23:28.094Z,0.9
2018-01-13T10:24:30.492Z,0.9
2018-01-13T10:25:33.454Z,0.9
2018-01-13T10:26:35.862Z,0.9
2018-01-13T10:27:38.263Z,0.9
2018-01-13T10:28:40.670Z,0.9
2018-01-13T10:29:43.398Z,0.9
2018-01-13T10:30:45.798Z,0.9
2018-01-13T10:31:48.505Z,0.9
2018-01-13T10:32:50.909Z,0.9
2018-01-13T10:33:53.307Z,0.9
2018-01-13T10:34:55.714Z,0.9
2018-01-13T10:35:58.427Z,0.9
2018-01-13T10:37:00.838Z,0.9
2018-01-13T10:38:03.243Z,0.9
2018-01-13T10:39:05.649Z,0.9
2018-01-13T10:40:08.049Z,0.9
2018-01-13T10:41:10.456Z,1
2018-01-13T10:42:12.884Z,1
2018-01-13T10:43:15.872Z,1
2018-01-13T10:44:18.284Z,1
2018-01-13T10:45:20.970Z,0.9
2018-01-13T10:46:23.379Z,1
2018-01-13T10:47:25.775Z,1
2018-01-13T10:48:28.191Z,1
2018-01-13T10:49:30.590Z,1
2018-01-13T10:50:32.996Z,0.9
2018-01-13T10:51:35.402Z,1
2018-01-13T10:52:37.809Z,0.9
2018-01-13T10:53:40.501Z,0.9
2018-01-13T10:54:42.908Z,1
2018-01-13T10:55:45.315Z,1
2018-01-13T10:56:47.711Z,1
2018-01-13T10:57:50.417Z,1
2018-01-13T10:58:52.829Z,1
2018-01-13T10:59:55.522Z,1
2018-01-13T11:00:58.221Z,0.9
2018-01-13T11:02:00.629Z,0.9
2018-01-13T11:03:03.039Z,1
2018-01-13T11:04:05.454Z,1
2018-01-13T11:05:07.860Z,0.9
2018-01-13T11:06:10.545Z,0.9
2018-01-13T11:07:12.958Z,0.9
2018-01-13T11:08:15.359Z,1
2018-01-13T11:09:17.765Z,1
2018-01-13T11:10:20.173Z,1
2018-01-13T11:11:22.580Z,1
2018-01-13T11:12:24.987Z,1
2018-01-13T11:13:27.394Z,1
2018-01-13T11:14:30.091Z,1
2018-01-13T11:15:32.509Z,1
2018-01-13T11:16:34.912Z,1
2018-01-13T11:17:37.591Z,1
2018-01-13T11:18:39.997Z,0.9
2018-01-13T11:19:42.415Z,1
2018-01-13T11:20:44.814Z,1
2018-01-13T11:21:47.219Z,1
2018-01-13T11:22:49.628Z,1
2018-01-13T11:23:52.036Z,1
2018-01-13T11:24:54.444Z,1
2018-01-13T11:25:56.853Z,1.1
2018-01-13T11:26:59.541Z,1.1
2018-01-13T11:28:01.957Z,1
2018-01-13T11:29:04.370Z,1
2018-01-13T11:30:06.785Z,1.1
2018-01-13T11:31:09.179Z,1.1
2018-01-13T11:32:11.593Z,1
2018-01-13T11:33:13.995Z,1
2018-01-13T11:34:16.398Z,1.1
2018-01-13T11:35:18.806Z,1
2018-01-13T11:36:21.206Z,1
2018-01-13T11:37:23.616Z,1.1
2018-01-13T11:38:26.026Z,1.3
2018-01-13T11:39:28.429Z,1.1
2018-01-13T11:40:30.846Z,1.1
2018-01-13T11:41:33.264Z,1.2
2018-01-13T11:42:35.727Z,1.2
2018-01-13T11:43:38.364Z,1.1
2018-01-13T11:44:40.774Z,1.1
2018-01-13T11:45:43.180Z,1.1
2018-01-13T11:46:45.589Z,1.1
2018-01-13T11:47:48.280Z,1.1
2018-01-13T11:48:50.672Z,1.1
2018-01-13T11:49:53.088Z,1.3
2018-01-13T11:50:55.504Z,1.3
2018-01-13T11:51:57.915Z,1.3
2018-01-13T11:53:00.323Z,1.3
2018-01-13T11:54:02.723Z,1.4
2018-01-13T11:55:05.423Z,1.4
2018-01-13T11:56:07.820Z,1.4
2018-01-13T11:57:10.235Z,1.3
2018-01-13T11:58:12.633Z,1.3
2018-01-13T11:59:15.040Z,1.3
2018-01-13T12:00:17.736Z,1.3
2018-01-13T12:01:20.148Z,1.2
2018-01-13T12:02:22.551Z,1.2
2018-01-13T12:03:24.964Z,1.2
2018-01-13T12:04:27.380Z,1.2
2018-01-13T12:05:29.790Z,1.2
2018-01-13T12:06:32.192Z,1.2
2018-01-13T12:07:34.590Z,1.3
2018-01-13T12:08:36.999Z,1.2
2018-01-13T12:09:39.410Z,1.1
2018-01-13T12:10:41.815Z,1.1
2018-01-13T12:11:44.232Z,1.1
2018-01-13T12:12:46.624Z,1.2
2018-01-13T12:13:49.037Z,1.2
2018-01-13T12:14:51.444Z,1.4
2018-01-13T12:15:53.852Z,1.3
2018-01-13T12:16:56.258Z,1.3
2018-01-13T12:17:58.665Z,1.3
2018-01-13T12:19:01.069Z,1.4
2018-01-13T12:20:03.481Z,1.2
2018-01-13T12:21:05.888Z,1.3
2018-01-13T12:22:08.301Z,1.4
2018-01-13T12:23:10.704Z,1.2
2018-01-13T12:24:13.389Z,1.2
2018-01-13T12:25:16.087Z,1.3
2018-01-13T12:26:18.491Z,1.2
2018-01-13T12:27:20.901Z,1.1
2018-01-13T12:28:23.589Z,1.1
2018-01-13T12:29:26.050Z,1.1
2018-01-13T12:30:28.405Z,1.1
2018-01-13T12:31:30.823Z,1.1
2018-01-13T12:32:33.233Z,1.1
2018-01-13T12:33:35.649Z,1.1
2018-01-13T12:34:38.335Z,1.1
2018-01-13T12:35:40.735Z,1.1
2018-01-13T12:36:43.152Z,1.1
2018-01-13T12:37:45.558Z,1.1
2018-01-13T12:38:47.960Z,1.1
2018-01-13T12:39:50.373Z,1.1
2018-01-13T12:40:52.787Z,1.1
2018-01-13T12:41:55.189Z,1.1
2018-01-13T12:42:57.600Z,1
2018-01-13T12:44:00.000Z,1
2018-01-13T12:45:02.710Z,1
2018-01-13T12:46:05.131Z,1
2018-01-13T12:47:07.538Z,1
2018-01-13T12:48:10.229Z,0.9
2018-01-13T12:49:12.638Z,0.9
2018-01-13T12:50:15.050Z,0.9
2018-01-13T12:51:17.461Z,1
2018-01-13T12:52:19.865Z,1
2018-01-13T12:53:22.274Z,0.9
2018-01-13T12:54:24.677Z,0.9
2018-01-13T12:55:27.080Z,0.9
2018-01-13T12:56:29.775Z,0.9
2018-01-13T12:57:32.171Z,0.9
2018-01-13T12:58:34.861Z,0.9
2018-01-13T12:59:37.272Z,0.9
2018-01-13T13:00:39.674Z,1
2018-01-13T13:01:42.082Z,0.9
2018-01-13T13:02:44.764Z,0.9
2018-01-13T13:03:47.169Z,0.9
2018-01-13T13:04:49.579Z,0.9
2018-01-13T13:05:51.994Z,0.9
2018-01-13T13:06:54.395Z,1
2018-01-13T13:07:56.807Z,1
2018-01-13T13:08:59.219Z,0.9
2018-01-13T13:10:01.626Z,1
2018-01-13T13:11:04.043Z,1
2018-01-13T13:12:06.770Z,1
2018-01-13T13:13:09.178Z,1
2018-01-13T13:14:11.584Z,1
2018-01-13T13:15:13.999Z,1
2018-01-13T13:16:16.694Z,1
2018-01-13T13:17:19.377Z,1
2018-01-13T13:18:21.789Z,1
2018-01-13T13:19:24.183Z,1
2018-01-13T13:20:26.586Z,1
2018-01-13T13:21:29.009Z,1
2018-01-13T13:22:31.409Z,1
2018-01-13T13:23:33.820Z,0.9
2018-01-13T13:24:36.218Z,1
2018-01-13T13:25:38.618Z,0.9
2018-01-13T13:26:41.032Z,0.9
2018-01-13T13:27:43.444Z,0.9
2018-01-13T13:28:45.841Z,0.9
2018-01-13T13:29:48.250Z,0.9
2018-01-13T13:30:50.664Z,0.9
2018-01-13T13:31:53.373Z,0.8
2018-01-13T13:32:55.795Z,0.8
2018-01-13T13:33:58.195Z,0.8
2018-01-13T13:35:00.610Z,0.7
2018-01-13T13:36:03.029Z,0.7
2018-01-13T13:37:05.425Z,0.7
2018-01-13T13:38:07.854Z,0.7
2018-01-13T13:39:10.229Z,0.6
2018-01-13T13:40:12.644Z,0.6
2018-01-13T13:41:15.332Z,0.6
2018-01-13T13:42:17.742Z,0.5
2018-01-13T13:43:20.130Z,0.6
2018-01-13T13:44:22.544Z,0.5
2018-01-13T13:45:24.953Z,0.5
2018-01-13T13:46:27.358Z,0.5
2018-01-13T13:47:29.764Z,0.5
2018-01-13T13:48:32.166Z,0.5
2018-01-13T13:49:34.572Z,0.5
2018-01-13T13:50:37.351Z,0.5
2018-01-13T13:51:39.756Z,0.5
2018-01-13T13:52:42.158Z,0.5
2018-01-13T13:53:44.570Z,0.4
2018-01-13T13:54:46.986Z,0.4
2018-01-13T13:55:49.391Z,0.4
2018-01-13T13:56:51.796Z,0.4
2018-01-13T13:57:54.206Z,0.4
2018-01-13T13:58:56.607Z,0.3
2018-01-13T13:59:59.013Z,0.3
2018-01-13T14:01:22.150Z,0.3
2018-01-13T14:02:31.086Z,0.3
2018-01-13T14:03:33.502Z,0.3
2018-01-13T14:04:35.908Z,0.3
2018-01-13T14:05:38.312Z,0.3
2018-01-13T14:06:40.722Z,0.3
2018-01-13T14:07:43.114Z,0.4
2018-01-13T14:08:45.524Z,0.3
2018-01-13T14:09:47.947Z,0.4
2018-01-13T14:10:50.348Z,0.4
2018-01-13T14:11:52.755Z,0.3
2018-01-13T14:12:55.165Z,0.3
2018-01-13T14:13:57.865Z,0.3
2018-01-13T14:15:00.563Z,0.3
2018-01-13T14:16:02.976Z,0.3
2018-01-13T14:17:05.369Z,0.2
2018-01-13T14:18:07.774Z,0.2
2018-01-13T14:19:10.192Z,0.2
2018-01-13T14:20:12.883Z,0.2
2018-01-13T14:21:15.567Z,0.2
2018-01-13T14:22:17.992Z,0.2
2018-01-13T14:23:20.675Z,0.1
2018-01-13T14:24:23.079Z,0.2
2018-01-13T14:25:25.492Z,0.2
2018-01-13T14:26:27.887Z,0.1
2018-01-13T14:27:30.292Z,0.2
2018-01-13T14:28:32.695Z,0.3
2018-01-13T14:29:35.103Z,0.3
2018-01-13T14:30:37.505Z,0.2
2018-01-13T14:31:39.902Z,0.3